createdAt,value
2023-01-13T00:00:47.730Z,73.20
2023-01-13T00:03:49.748Z,73.70
2023-01-13T00:06:51.708Z,74.50
2023-01-13T00:09:53.721Z,75.70
2023-01-13T00:12:55.719Z,75.60
2023-01-13T00:15:59.419Z,75.10
2023-01-13T00:19:01.391Z,74.60
2023-01-13T00:22:03.399Z,74.30
2023-01-13T00:25:05.685Z,74.40
2023-01-13T00:28:07.679Z,73.90
2023-01-13T00:31:16.526Z,73.30
2023-01-13T00:34:18.579Z,73.70
2023-01-13T00:37:20.845Z,73.40
2023-01-13T00:40:22.816Z,72.80
2023-01-13T00:43:25.345Z,72.80
2023-01-13T00:46:27.272Z,73.40
2023-01-13T00:49:29.226Z,73.80
2023-01-13T00:52:33.127Z,74.10
2023-01-13T00:55:35.059Z,75.70
2023-01-13T00:58:37.083Z,76.70
2023-01-13T01:01:39.934Z,77.40
2023-01-13T01:04:42.068Z,77.90
2023-01-13T01:07:43.998Z,77.70
2023-01-13T01:10:45.956Z,77.00
2023-01-13T01:13:49.026Z,77.10
2023-01-13T01:16:51.060Z,77.90
2023-01-13T01:19:55.464Z,78.00
2023-01-13T01:22:57.396Z,78.20
2023-01-13T01:26:04.643Z,78.50
2023-01-13T01:29:06.591Z,78.50
2023-01-13T01:32:08.521Z,79.40
2023-01-13T01:35:10.525Z,79.40
2023-01-13T01:38:12.592Z,80.90
2023-01-13T01:41:24.881Z,81.30
2023-01-13T01:44:41.977Z,81.60
2023-01-13T01:47:47.213Z,81.30
2023-01-13T01:50:49.265Z,82.10
2023-01-13T01:53:52.898Z,81.90
2023-01-13T01:56:55.547Z,81.50
2023-01-13T02:00:02.039Z,81.10
2023-01-13T02:03:15.300Z,81.00
2023-01-13T02:06:17.671Z,80.30
2023-01-13T02:09:19.888Z,79.80
2023-01-13T02:12:22.959Z,80.00
2023-01-13T02:15:47.740Z,79.90
2023-01-13T02:18:49.881Z,79.80
2023-01-13T02:22:14.404Z,79.50
2023-01-13T02:25:22.004Z,79.50
2023-01-13T02:28:45.672Z,80.00
2023-01-13T02:31:50.771Z,80.90
2023-01-13T02:35:06.709Z,81.30
2023-01-13T02:38:11.323Z,81.60
2023-01-13T02:41:26.418Z,82.10
2023-01-13T02:44:38.404Z,80.80
2023-01-13T02:47:43.773Z,81.10
2023-01-13T02:51:03.958Z,81.00
2023-01-13T02:54:21.199Z,81.00
2023-01-13T02:57:25.909Z,81.00
2023-01-13T03:00:28.339Z,80.80
2023-01-13T03:03:30.270Z,80.00
2023-01-13T03:07:04.659Z,79.60
2023-01-13T03:10:31.339Z,78.10
2023-01-13T03:13:36.154Z,78.50
2023-01-13T03:16:56.695Z,77.30
2023-01-13T03:20:07.782Z,76.90
2023-01-13T03:23:24.693Z,76.30
2023-01-13T03:26:35.762Z,75.50
2023-01-13T03:29:42.387Z,75.60
2023-01-13T03:32:49.054Z,75.10
2023-01-13T03:35:55.611Z,75.20
2023-01-13T03:39:03.843Z,74.80
2023-01-13T03:42:13.212Z,75.10
2023-01-13T03:45:19.098Z,74.80
2023-01-13T03:48:23.785Z,75.00
2023-01-13T03:51:29.426Z,74.80
2023-01-13T03:54:34.310Z,74.80
2023-01-13T03:57:43.370Z,74.50
2023-01-13T04:01:18.879Z,75.00
2023-01-13T04:04:25.958Z,74.40
2023-01-13T04:07:33.259Z,74.20
2023-01-13T04:10:43.027Z,73.80
2023-01-13T04:13:46.837Z,74.10
2023-01-13T04:16:49.100Z,74.30
2023-01-13T04:19:50.965Z,74.80
2023-01-13T04:22:52.794Z,75.30
2023-01-13T04:25:55.763Z,75.50
2023-01-13T04:29:01.089Z,75.10
2023-01-13T04:32:02.995Z,75.30
2023-01-13T04:35:05.227Z,74.90
2023-01-13T04:38:13.488Z,74.60
2023-01-13T04:41:15.379Z,75.20
2023-01-13T04:44:17.261Z,75.10
2023-01-13T04:47:19.179Z,75.20
2023-01-13T04:50:21.295Z,74.60
2023-01-13T04:53:23.177Z,74.50
2023-01-13T04:56:25.059Z,74.30
2023-01-13T04:59:26.936Z,74.10
2023-01-13T05:02:28.806Z,74.00
2023-01-13T05:05:30.825Z,74.10
2023-01-13T05:08:32.715Z,74.10
2023-01-13T05:11:34.574Z,74.50
2023-01-13T05:14:36.672Z,74.20
2023-01-13T05:17:38.763Z,74.60
2023-01-13T05:20:40.641Z,74.40
2023-01-13T05:23:42.522Z,74.30
2023-01-13T05:26:45.086Z,74.30
2023-01-13T05:29:46.906Z,74.20
2023-01-13T05:32:51.215Z,74.60
2023-01-13T05:35:53.237Z,74.70
2023-01-13T05:38:55.090Z,74.60
2023-01-13T05:41:56.961Z,74.80
2023-01-13T05:44:58.799Z,75.00
2023-01-13T05:48:00.677Z,74.80
2023-01-13T05:51:04.502Z,74.90
2023-01-13T05:54:06.351Z,74.60
2023-01-13T05:57:09.099Z,75.00
2023-01-13T06:00:11.523Z,74.70
2023-01-13T06:03:17.023Z,75.20
2023-01-13T06:06:18.974Z,74.80
2023-01-13T06:09:20.868Z,74.30
2023-01-13T06:12:22.713Z,75.10
2023-01-13T06:15:25.202Z,74.70
2023-01-13T06:18:27.810Z,74.90
2023-01-13T06:21:31.380Z,74.80
2023-01-13T06:24:34.303Z,75.20
2023-01-13T06:27:36.211Z,75.10
2023-01-13T06:30:42.197Z,75.50
2023-01-13T06:33:49.349Z,75.50
2023-01-13T06:36:54.403Z,75.50
2023-01-13T06:40:00.166Z,75.50
2023-01-13T06:43:03.339Z,75.40
2023-01-13T06:46:05.449Z,75.40
2023-01-13T06:49:07.631Z,76.00
2023-01-13T06:52:09.703Z,75.70
2023-01-13T06:55:11.902Z,75.90
2023-01-13T06:58:13.896Z,76.00
2023-01-13T07:01:16.175Z,76.30
2023-01-13T07:04:18.148Z,75.60
2023-01-13T07:07:20.207Z,76.10
2023-01-13T07:10:22.297Z,75.80
2023-01-13T07:13:24.751Z,76.20
2023-01-13T07:16:26.642Z,76.00
2023-01-13T07:19:28.519Z,77.00
2023-01-13T07:22:30.356Z,78.60
2023-01-13T07:25:33.051Z,79.20
2023-01-13T07:28:35.348Z,81.40
2023-01-13T07:31:37.283Z,82.80
2023-01-13T07:34:39.153Z,83.90
2023-01-13T07:37:41.037Z,84.30
2023-01-13T07:40:42.890Z,84.30
2023-01-13T07:43:52.010Z,84.50
2023-01-13T07:46:53.828Z,84.70
2023-01-13T07:49:55.781Z,85.10
2023-01-13T07:53:00.570Z,85.20
2023-01-13T07:56:04.420Z,85.30
2023-01-13T07:59:06.272Z,85.50
2023-01-13T08:02:12.617Z,85.60
2023-01-13T08:05:14.639Z,85.60
2023-01-13T08:08:16.491Z,85.50
2023-01-13T08:11:23.332Z,85.80
2023-01-13T08:14:25.427Z,85.90
2023-01-13T08:17:27.418Z,84.70
2023-01-13T08:20:29.401Z,82.30
2023-01-13T08:23:31.347Z,83.10
2023-01-13T08:26:33.220Z,82.30
2023-01-13T08:29:35.105Z,81.40
2023-01-13T08:32:36.975Z,82.80
2023-01-13T08:35:40.393Z,83.00
2023-01-13T08:38:44.606Z,83.90
2023-01-13T08:41:46.430Z,82.80
2023-01-13T08:44:48.303Z,82.10
2023-01-13T08:47:50.620Z,82.10
2023-01-13T08:50:52.640Z,82.20
2023-01-13T08:53:56.673Z,82.80
2023-01-13T08:56:58.787Z,82.40
2023-01-13T09:00:00.705Z,82.90
2023-01-13T09:03:02.820Z,83.50
2023-01-13T09:06:05.092Z,82.70
2023-01-13T09:09:07.015Z,82.10
2023-01-13T09:12:15.320Z,82.80
2023-01-13T09:15:17.328Z,81.90
2023-01-13T09:18:19.227Z,81.40
2023-01-13T09:21:22.429Z,81.70
2023-01-13T09:24:25.632Z,81.90
2023-01-13T09:27:27.582Z,81.70
2023-01-13T09:30:29.472Z,81.30
2023-01-13T09:33:31.388Z,80.90
2023-01-13T09:36:33.255Z,81.80
2023-01-13T09:39:37.900Z,82.10
2023-01-13T09:42:46.464Z,82.00
2023-01-13T09:45:56.105Z,82.40
2023-01-13T09:48:58.849Z,82.30
2023-01-13T09:52:00.964Z,82.20
2023-01-13T09:55:12.368Z,81.70
2023-01-13T09:58:17.400Z,81.30
2023-01-13T10:01:31.893Z,80.70
2023-01-13T10:04:33.885Z,79.80
2023-01-13T10:07:39.662Z,79.50
2023-01-13T10:10:50.857Z,79.00
2023-01-13T10:13:58.878Z,79.30
2023-01-13T10:17:12.248Z,79.70
2023-01-13T10:20:32.176Z,79.40
2023-01-13T10:24:05.377Z,79.20
2023-01-13T10:27:17.348Z,79.40
2023-01-13T10:30:23.817Z,77.70
2023-01-13T10:33:28.000Z,79.20
2023-01-13T10:36:30.446Z,79.40
2023-01-13T10:39:45.106Z,79.90
2023-01-13T10:42:46.853Z,79.50
2023-01-13T10:46:11.453Z,79.70
2023-01-13T10:49:32.543Z,80.00
2023-01-13T10:52:36.187Z,80.00
2023-01-13T10:55:38.144Z,79.30
2023-01-13T10:58:40.044Z,78.90
2023-01-13T11:01:58.076Z,79.00
2023-01-13T11:05:09.430Z,77.50
2023-01-13T11:08:18.278Z,75.70
2023-01-13T11:11:40.096Z,72.80
2023-01-13T11:14:46.609Z,70.90
2023-01-13T11:17:54.371Z,69.00
2023-01-13T11:20:58.699Z,68.10
2023-01-13T11:24:38.855Z,69.80
2023-01-13T11:27:58.808Z,68.90
2023-01-13T11:31:05.793Z,66.70
2023-01-13T11:34:25.558Z,65.70
2023-01-13T11:37:37.510Z,67.50
2023-01-13T11:40:49.443Z,69.60
2023-01-13T11:44:10.957Z,69.50
2023-01-13T11:47:14.010Z,69.30
2023-01-13T12:03:38.322Z,72.90
2023-01-13T12:06:41.917Z,73.10
2023-01-13T12:09:49.642Z,71.30
2023-01-13T12:13:00.813Z,71.60
2023-01-13T12:16:11.606Z,72.60
2023-01-13T12:19:19.412Z,72.60
2023-01-13T12:22:29.989Z,71.70
2023-01-13T12:25:43.799Z,70.90
2023-01-13T12:29:11.370Z,67.70
2023-01-13T12:32:19.512Z,67.60
2023-01-13T12:35:47.007Z,66.70
2023-01-13T12:39:18.864Z,67.90
2023-01-13T12:42:47.153Z,74.00
2023-01-13T12:45:49.179Z,76.50
2023-01-13T12:48:56.637Z,76.30
2023-01-13T12:52:05.452Z,76.30
2023-01-13T12:55:12.997Z,74.70
2023-01-13T12:58:16.709Z,74.20
2023-01-13T13:01:34.108Z,72.40
2023-01-13T13:04:48.670Z,68.40
2023-01-13T13:08:12.128Z,71.00
2023-01-13T13:11:13.925Z,68.40
2023-01-13T13:14:36.302Z,70.00
2023-01-13T13:17:39.606Z,68.60
2023-01-13T13:21:05.220Z,69.30
2023-01-13T13:24:10.706Z,68.50
2023-01-13T13:27:21.257Z,68.40
2023-01-13T13:30:35.396Z,69.20
2023-01-13T13:34:20.391Z,70.20
2023-01-13T13:37:25.294Z,69.50
2023-01-13T13:40:30.469Z,69.60
2023-01-13T13:43:43.549Z,70.00
2023-01-13T13:46:47.820Z,70.90
2023-01-13T13:49:56.037Z,71.50
2023-01-13T13:53:08.521Z,72.10
2023-01-13T13:56:18.639Z,72.70
2023-01-13T13:59:26.165Z,71.50
2023-01-13T14:02:30.948Z,73.70
2023-01-13T14:05:37.124Z,73.30
2023-01-13T14:08:40.079Z,75.70
2023-01-13T14:11:41.904Z,76.00
2023-01-13T14:14:45.009Z,76.70
2023-01-13T14:17:47.560Z,77.10
2023-01-13T14:21:00.916Z,76.70
2023-01-13T14:24:13.707Z,75.80
2023-01-13T14:27:21.497Z,75.60
2023-01-13T14:30:26.926Z,76.70
2023-01-13T14:33:28.751Z,76.70
2023-01-13T14:36:33.385Z,76.10
2023-01-13T14:39:40.974Z,75.90
2023-01-13T14:42:42.847Z,75.80
2023-01-13T14:46:02.027Z,76.90
2023-01-13T14:49:03.901Z,76.30
2023-01-13T14:52:27.756Z,76.10
2023-01-13T14:55:30.686Z,74.90
2023-01-13T14:58:32.855Z,74.90
2023-01-13T15:01:36.044Z,73.80
2023-01-13T15:04:38.048Z,74.40
2023-01-13T15:07:39.956Z,74.20
2023-01-13T15:10:49.145Z,74.10
2023-01-13T15:14:00.617Z,72.70
2023-01-13T15:17:02.790Z,73.10
2023-01-13T15:23:21.421Z,73.40
2023-01-13T15:26:28.761Z,73.70
2023-01-13T15:29:30.697Z,73.00
2023-01-13T15:32:32.552Z,72.70
2023-01-13T15:35:35.245Z,73.40
2023-01-13T15:38:37.123Z,73.10
2023-01-13T15:41:39.021Z,74.40
2023-01-13T15:44:40.869Z,73.70
2023-01-13T15:47:43.924Z,73.90
2023-01-13T15:50:45.858Z,73.00
2023-01-13T15:53:47.820Z,73.60
2023-01-13T15:56:49.732Z,73.00
2023-01-13T15:59:58.864Z,73.10
2023-01-13T16:03:00.863Z,72.30
2023-01-13T16:06:02.827Z,72.10
2023-01-13T16:09:05.610Z,73.10
2023-01-13T16:12:07.629Z,73.00
2023-01-13T16:15:15.792Z,74.70
2023-01-13T16:18:21.494Z,75.50
2023-01-13T16:21:23.956Z,75.80
2023-01-13T16:27:33.187Z,76.10
2023-01-13T16:30:36.917Z,76.10
2023-01-13T16:33:39.084Z,76.10
2023-01-13T16:36:41.055Z,75.70
2023-01-13T16:39:42.941Z,75.50
2023-01-13T16:42:44.822Z,75.90
2023-01-13T16:45:46.639Z,76.80
2023-01-13T16:48:51.238Z,76.40
2023-01-13T16:51:53.093Z,76.40
2023-01-13T16:54:55.875Z,76.40
2023-01-13T16:57:59.891Z,76.40
2023-01-13T17:01:03.728Z,75.70
2023-01-13T17:04:06.199Z,76.00
2023-01-13T17:10:21.545Z,75.70
2023-01-13T17:13:23.564Z,75.10
2023-01-13T17:16:25.973Z,74.80
2023-01-13T17:19:27.972Z,74.50
2023-01-13T17:22:29.780Z,75.30
2023-01-13T17:25:31.730Z,75.30
2023-01-13T17:28:33.726Z,74.90
2023-01-13T17:31:36.410Z,75.50
2023-01-13T17:34:38.240Z,74.80
2023-01-13T17:37:40.220Z,74.80
2023-01-13T17:40:42.096Z,74.80
2023-01-13T17:43:46.284Z,74.00
2023-01-13T17:46:48.533Z,74.20
2023-01-13T17:49:50.432Z,74.30
2023-01-13T17:52:52.386Z,73.50
2023-01-13T17:55:55.489Z,72.70
2023-01-13T17:58:57.395Z,73.30
2023-01-13T18:01:59.559Z,73.20
2023-01-13T18:05:01.464Z,73.30
2023-01-13T18:08:03.634Z,74.30
2023-01-13T18:11:05.707Z,74.20
2023-01-13T18:14:07.612Z,73.50
2023-01-13T18:17:09.517Z,73.80
2023-01-13T18:20:15.835Z,73.70
2023-01-13T18:23:21.597Z,74.40
2023-01-13T18:26:30.143Z,74.10
2023-01-13T18:29:32.123Z,74.10
2023-01-13T18:32:34.491Z,73.90
2023-01-13T18:35:38.906Z,74.70
2023-01-13T18:38:40.783Z,75.00
2023-01-13T18:44:57.063Z,74.30
2023-01-13T18:47:59.990Z,74.50
2023-01-13T18:51:01.973Z,74.60
2023-01-13T18:54:03.933Z,74.20
2023-01-13T18:57:05.924Z,74.40
2023-01-13T19:00:13.576Z,75.10
2023-01-13T19:03:15.540Z,74.30
2023-01-13T19:06:17.426Z,74.90
2023-01-13T19:09:24.213Z,74.80
2023-01-13T19:12:26.488Z,75.00
2023-01-13T19:15:28.652Z,74.60
2023-01-13T19:18:30.578Z,75.40
2023-01-13T19:24:39.570Z,75.20
2023-01-13T19:27:43.785Z,75.20
2023-01-13T19:30:45.704Z,75.70
2023-01-13T19:33:47.705Z,75.20
2023-01-13T19:36:52.402Z,75.90
2023-01-13T19:39:54.372Z,75.60
2023-01-13T19:42:56.290Z,75.90
2023-01-13T19:45:58.189Z,76.00
2023-01-13T19:49:00.101Z,75.90
2023-01-13T19:52:02.117Z,75.70
2023-01-13T19:55:04.233Z,75.80
2023-01-13T19:58:08.642Z,76.40
2023-01-13T20:01:10.646Z,76.60
2023-01-13T20:04:12.769Z,76.30
2023-01-13T20:07:14.834Z,77.00
2023-01-13T20:10:18.169Z,77.60
2023-01-13T20:13:22.602Z,76.70
2023-01-13T20:16:24.612Z,76.90
2023-01-13T20:22:33.390Z,76.30
2023-01-13T20:25:35.286Z,76.40
2023-01-13T20:28:37.254Z,76.60
2023-01-13T20:31:39.387Z,76.70
2023-01-13T20:34:41.344Z,76.40
2023-01-13T20:37:43.669Z,76.90
2023-01-13T20:40:45.604Z,77.10
2023-01-13T20:43:58.181Z,77.00
2023-01-13T20:47:00.085Z,77.00
2023-01-13T20:50:01.961Z,77.40
2023-01-13T20:53:03.867Z,77.40
2023-01-13T20:56:07.260Z,77.80
2023-01-13T20:59:09.597Z,77.70
2023-01-13T21:02:14.189Z,77.70
2023-01-13T21:05:16.187Z,77.70
2023-01-13T21:08:24.455Z,77.40
2023-01-13T21:11:28.091Z,77.40
2023-01-13T21:14:30.132Z,77.50
2023-01-13T21:17:32.010Z,77.20
2023-01-13T21:20:35.681Z,77.40
2023-01-13T21:23:42.383Z,76.90
2023-01-13T21:26:44.360Z,76.60
2023-01-13T21:29:46.303Z,76.80
2023-01-13T21:32:48.140Z,76.90
2023-01-13T21:35:50.049Z,76.40
2023-01-13T21:38:53.507Z,76.40
2023-01-13T21:41:55.428Z,76.50
2023-01-13T21:44:57.303Z,77.10
2023-01-13T21:47:59.203Z,77.00
2023-01-13T21:51:01.151Z,77.10
2023-01-13T21:54:03.066Z,77.10
2023-01-13T21:57:04.967Z,77.80
2023-01-13T22:00:07.618Z,77.40
2023-01-13T22:03:10.861Z,77.40
2023-01-13T22:06:12.751Z,77.60
2023-01-13T22:09:14.634Z,77.10
2023-01-13T22:12:16.562Z,77.80
2023-01-13T22:15:18.602Z,77.80
2023-01-13T22:18:20.463Z,77.40
2023-01-13T22:21:22.581Z,77.70
2023-01-13T22:24:24.487Z,77.10
2023-01-13T22:27:26.861Z,77.20
2023-01-13T22:30:28.857Z,77.20
2023-01-13T22:33:30.727Z,77.00
2023-01-13T22:36:37.209Z,76.90
2023-01-13T22:39:39.423Z,77.00
2023-01-13T22:42:42.620Z,76.90
2023-01-13T22:45:44.544Z,77.00
2023-01-13T22:48:46.413Z,76.30
2023-01-13T22:51:48.581Z,77.10
2023-01-13T22:54:50.391Z,76.40
2023-01-13T22:57:52.245Z,76.60
2023-01-13T23:00:54.435Z,76.40
2023-01-13T23:03:57.460Z,76.60
2023-01-13T23:06:59.425Z,76.50
2023-01-13T23:10:01.431Z,76.70
2023-01-13T23:13:03.648Z,76.50
2023-01-13T23:16:15.994Z,76.70
2023-01-13T23:19:17.907Z,76.60
2023-01-13T23:22:19.842Z,76.90
2023-01-13T23:25:21.892Z,76.80
2023-01-13T23:28:23.781Z,76.40
2023-01-13T23:31:25.825Z,76.30
2023-01-13T23:34:27.956Z,76.40
2023-01-13T23:37:29.906Z,76.60
2023-01-13T23:40:34.370Z,76.20
2023-01-13T23:43:36.358Z,76.20
2023-01-13T23:46:38.268Z,76.00
2023-01-13T23:49:40.132Z,76.00
2023-01-13T23:52:42.126Z,76.60
2023-01-13T23:55:44.119Z,76.50
2023-01-13T23:58:46.555Z,77.00
